sensor_id;sensor_type;location;lat;lon;timestamp;P1;durP1;ratioP1;P2;durP2;ratioP2
14736;SDS011;7459;53.590;10.062;2022-09-09T04:54:30;17.47;;;10.13;;
14736;SDS011;7459;53.590;10.062;2022-09-09T04:56:57;18.05;;;10.95;;
14736;SDS011;7459;53.590;10.062;2022-09-09T04:59:22;21.40;;;10.50;;
14736;SDS011;7459;53.590;10.062;2022-09-09T05:01:48;19.13;;;9.90;;
14736;SDS011;7459;53.590;10.062;2022-09-09T05:04:15;18.92;;;9.80;;
14736;SDS011;7459;53.590;10.062;2022-09-09T05:06:41;16.20;;;10.10;;
14736;SDS011;7459;53.590;10.062;2022-09-09T05:09:07;16.65;;;9.30;;
14736;SDS011;7459;53.590;10.062;2022-09-09T05:11:33;15.77;;;8.57;;
14736;SDS011;7459;53.590;10.062;2022-09-09T05:14:03;15.60;;;8.95;;
14736;SDS011;7459;53.590;10.062;2022-09-09T05:16:29;16.27;;;8.63;;
14736;SDS011;7459;53.590;10.062;2022-09-09T05:18:56;14.35;;;8.70;;
14736;SDS011;7459;53.590;10.062;2022-09-09T05:21:22;15.50;;;8.65;;
14736;SDS011;7459;53.590;10.062;2022-09-09T05:23:51;18.83;;;9.33;;
14736;SDS011;7459;53.590;10.062;2022-09-09T05:26:18;16.05;;;8.93;;
14736;SDS011;7459;53.590;10.062;2022-09-09T05:28:46;15.50;;;8.70;;
14736;SDS011;7459;53.590;10.062;2022-09-09T05:31:13;15.07;;;9.75;;
14736;SDS011;7459;53.590;10.062;2022-09-09T05:33:42;14.70;;;8.07;;
14736;SDS011;7459;53.590;10.062;2022-09-09T05:36:11;14.15;;;8.02;;
14736;SDS011;7459;53.590;10.062;2022-09-09T05:38:43;16.35;;;7.97;;
14736;SDS011;7459;53.590;10.062;2022-09-09T05:41:10;14.82;;;8.82;;
14736;SDS011;7459;53.590;10.062;2022-09-09T05:43:37;16.25;;;8.65;;
14736;SDS011;7459;53.590;10.062;2022-09-09T05:46:04;14.57;;;7.67;;
14736;SDS011;7459;53.590;10.062;2022-09-09T05:48:36;13.85;;;7.53;;
14736;SDS011;7459;53.590;10.062;2022-09-09T05:51:05;13.85;;;8.18;;
14736;SDS011;7459;53.590;10.062;2022-09-09T05:53:33;14.75;;;8.45;;
14736;SDS011;7459;53.590;10.062;2022-09-09T05:56:06;15.07;;;9.57;;
14736;SDS011;7459;53.590;10.062;2022-09-09T05:58:39;14.77;;;7.57;;
14736;SDS011;7459;53.590;10.062;2022-09-09T06:01:09;16.30;;;7.88;;
14736;SDS011;7459;53.590;10.062;2022-09-09T06:03:41;12.73;;;8.18;;
14736;SDS011;7459;53.590;10.062;2022-09-09T06:06:10;14.73;;;8.10;;
14736;SDS011;7459;53.590;10.062;2022-09-09T06:08:40;14.43;;;7.85;;
14736;SDS011;7459;53.590;10.062;2022-09-09T06:11:10;14.70;;;7.87;;
14736;SDS011;7459;53.590;10.062;2022-09-09T06:13:38;14.10;;;7.75;;
14736;SDS011;7459;53.590;10.062;2022-09-09T06:16:05;13.93;;;8.35;;
14736;SDS011;7459;53.590;10.062;2022-09-09T06:18:33;10.70;;;7.28;;
14736;SDS011;7459;53.590;10.062;2022-09-09T06:21:00;12.57;;;6.97;;
14736;SDS011;7459;53.590;10.062;2022-09-09T06:23:29;11.85;;;6.10;;
14736;SDS011;7459;53.590;10.062;2022-09-09T06:26:05;13.02;;;6.78;;
14736;SDS011;7459;53.590;10.062;2022-09-09T06:28:45;12.23;;;7.75;;
14736;SDS011;7459;53.590;10.062;2022-09-09T06:31:13;13.40;;;7.15;;
14736;SDS011;7459;53.590;10.062;2022-09-09T06:33:47;10.63;;;6.50;;
14736;SDS011;7459;53.590;10.062;2022-09-09T06:36:24;11.45;;;7.45;;
14736;SDS011;7459;53.590;10.062;2022-09-09T06:38:51;13.45;;;6.32;;
14736;SDS011;7459;53.590;10.062;2022-09-09T06:41:17;10.35;;;6.10;;
14736;SDS011;7459;53.590;10.062;2022-09-09T06:43:46;14.17;;;7.63;;
14736;SDS011;7459;53.590;10.062;2022-09-09T06:46:13;14.30;;;6.65;;
14736;SDS011;7459;53.590;10.062;2022-09-09T06:48:52;12.75;;;6.82;;
14736;SDS011;7459;53.590;10.062;2022-09-09T06:51:21;10.82;;;5.65;;
14736;SDS011;7459;53.590;10.062;2022-09-09T06:53:49;10.32;;;6.07;;
14736;SDS011;7459;53.590;10.062;2022-09-09T06:58:51;11.50;;;6.03;;
14736;SDS011;7459;53.590;10.062;2022-09-09T07:01:24;11.20;;;5.25;;
14736;SDS011;7459;53.590;10.062;2022-09-09T07:03:54;10.93;;;5.35;;
14736;SDS011;7459;53.590;10.062;2022-09-09T07:06:23;10.15;;;4.93;;
14736;SDS011;7459;53.590;10.062;2022-09-09T07:09:14;9.60;;;5.57;;
14736;SDS011;7459;53.590;10.062;2022-09-09T07:11:42;11.82;;;5.15;;
14736;SDS011;7459;53.590;10.062;2022-09-09T07:14:11;8.70;;;5.28;;
14736;SDS011;7459;53.590;10.062;2022-09-09T07:16:38;9.77;;;5.18;;
14736;SDS011;7459;53.590;10.062;2022-09-09T07:19:06;10.15;;;5.63;;
14736;SDS011;7459;53.590;10.062;2022-09-09T07:21:32;10.53;;;5.73;;
14736;SDS011;7459;53.590;10.062;2022-09-09T07:23:59;8.27;;;5.03;;
14736;SDS011;7459;53.590;10.062;2022-09-09T07:26:26;9.00;;;5.07;;
14736;SDS011;7459;53.590;10.062;2022-09-09T07:28:54;10.70;;;4.43;;
14736;SDS011;7459;53.590;10.062;2022-09-09T07:31:25;10.77;;;4.80;;
14736;SDS011;7459;53.590;10.062;2022-09-09T07:33:56;10.10;;;5.57;;
14736;SDS011;7459;53.590;10.062;2022-09-09T07:36:25;7.88;;;4.90;;
14736;SDS011;7459;53.590;10.062;2022-09-09T07:38:58;8.80;;;4.07;;
14736;SDS011;7459;53.590;10.062;2022-09-09T07:41:34;10.70;;;4.57;;
14736;SDS011;7459;53.590;10.062;2022-09-09T07:44:10;9.43;;;4.60;;
14736;SDS011;7459;53.590;10.062;2022-09-09T07:46:46;9.23;;;3.60;;
14736;SDS011;7459;53.590;10.062;2022-09-09T07:49:12;9.23;;;3.75;;
14736;SDS011;7459;53.590;10.062;2022-09-09T07:51:39;11.55;;;4.50;;
14736;SDS011;7459;53.590;10.062;2022-09-09T07:54:09;7.10;;;3.60;;
14736;SDS011;7459;53.590;10.062;2022-09-09T07:56:38;7.65;;;4.10;;
14736;SDS011;7459;53.590;10.062;2022-09-09T07:59:04;7.97;;;3.40;;
14736;SDS011;7459;53.590;10.062;2022-09-09T08:01:32;8.63;;;4.18;;
14736;SDS011;7459;53.590;10.062;2022-09-09T08:04:08;7.70;;;4.53;;
14736;SDS011;7459;53.590;10.062;2022-09-09T08:06:45;9.37;;;3.33;;
14736;SDS011;7459;53.590;10.062;2022-09-09T08:09:14;7.63;;;3.30;;
14736;SDS011;7459;53.590;10.062;2022-09-09T08:11:41;8.82;;;4.47;;
14736;SDS011;7459;53.590;10.062;2022-09-09T08:14:08;7.32;;;3.63;;
14736;SDS011;7459;53.590;10.062;2022-09-09T08:16:36;10.32;;;3.60;;
14736;SDS011;7459;53.590;10.062;2022-09-09T08:19:05;7.87;;;4.17;;
14736;SDS011;7459;53.590;10.062;2022-09-09T08:21:32;7.07;;;3.92;;
14736;SDS011;7459;53.590;10.062;2022-09-09T08:24:01;8.10;;;3.95;;
14736;SDS011;7459;53.590;10.062;2022-09-09T08:26:30;6.80;;;3.97;;
14736;SDS011;7459;53.590;10.062;2022-09-09T08:29:00;9.02;;;4.13;;
14736;SDS011;7459;53.590;10.062;2022-09-09T08:31:28;7.83;;;4.33;;
14736;SDS011;7459;53.590;10.062;2022-09-09T08:33:58;8.23;;;3.83;;
14736;SDS011;7459;53.590;10.062;2022-09-09T08:36:25;7.90;;;3.88;;
14736;SDS011;7459;53.590;10.062;2022-09-09T08:38:54;8.63;;;4.07;;
14736;SDS011;7459;53.590;10.062;2022-09-09T08:41:28;8.85;;;5.32;;
14736;SDS011;7459;53.590;10.062;2022-09-09T08:44:04;6.57;;;3.57;;
14736;SDS011;7459;53.590;10.062;2022-09-09T08:47:55;7.97;;;4.20;;
14736;SDS011;7459;53.590;10.062;2022-09-09T08:50:26;10.13;;;4.43;;
14736;SDS011;7459;53.590;10.062;2022-09-09T08:53:00;7.80;;;3.80;;
14736;SDS011;7459;53.590;10.062;2022-09-09T08:55:39;8.38;;;4.10;;
14736;SDS011;7459;53.590;10.062;2022-09-09T08:58:22;10.00;;;3.40;;
14736;SDS011;7459;53.590;10.062;2022-09-09T09:03:55;10.25;;;3.67;;
14736;SDS011;7459;53.590;10.062;2022-09-09T09:06:50;7.78;;;3.70;;
14736;SDS011;7459;53.590;10.062;2022-09-09T09:12:24;7.57;;;3.60;;
14736;SDS011;7459;53.590;10.062;2022-09-09T09:14:54;6.72;;;3.72;;
14736;SDS011;7459;53.590;10.062;2022-09-09T09:17:24;8.10;;;3.13;;
14736;SDS011;7459;53.590;10.062;2022-09-09T09:19:54;8.25;;;3.70;;
14736;SDS011;7459;53.590;10.062;2022-09-09T09:22:53;8.87;;;3.80;;
14736;SDS011;7459;53.590;10.062;2022-09-09T09:25:21;9.45;;;4.25;;
14736;SDS011;7459;53.590;10.062;2022-09-09T09:28:02;7.15;;;3.85;;
14736;SDS011;7459;53.590;10.062;2022-09-09T09:36:32;8.30;;;3.67;;
14736;SDS011;7459;53.590;10.062;2022-09-09T09:39:21;6.38;;;3.45;;
14736;SDS011;7459;53.590;10.062;2022-09-09T09:41:53;11.02;;;4.57;;
14736;SDS011;7459;53.590;10.062;2022-09-09T09:44:23;6.07;;;3.40;;
14736;SDS011;7459;53.590;10.062;2022-09-09T09:47:13;7.30;;;3.20;;
14736;SDS011;7459;53.590;10.062;2022-09-09T09:49:52;7.97;;;2.80;;
14736;SDS011;7459;53.590;10.062;2022-09-09T09:52:30;7.05;;;2.75;;
14736;SDS011;7459;53.590;10.062;2022-09-09T09:54:59;7.20;;;2.30;;
14736;SDS011;7459;53.590;10.062;2022-09-09T09:57:30;6.32;;;2.63;;
14736;SDS011;7459;53.590;10.062;2022-09-09T10:00:03;5.80;;;2.55;;
14736;SDS011;7459;53.590;10.062;2022-09-09T10:02:39;5.27;;;1.93;;
14736;SDS011;7459;53.590;10.062;2022-09-09T10:05:22;4.97;;;1.90;;
14736;SDS011;7459;53.590;10.062;2022-09-09T10:08:13;5.18;;;1.90;;
14736;SDS011;7459;53.590;10.062;2022-09-09T10:19:35;5.63;;;1.65;;
14736;SDS011;7459;53.590;10.062;2022-09-09T10:22:09;6.10;;;2.50;;
14736;SDS011;7459;53.590;10.062;2022-09-09T10:25:11;9.13;;;2.05;;
14736;SDS011;7459;53.590;10.062;2022-09-09T10:30:44;4.13;;;1.77;;
14736;SDS011;7459;53.590;10.062;2022-09-09T10:36:31;4.57;;;1.40;;
14736;SDS011;7459;53.590;10.062;2022-09-09T10:42:09;7.20;;;1.88;;
14736;SDS011;7459;53.590;10.062;2022-09-09T10:51:05;4.63;;;1.70;;
14736;SDS011;7459;53.590;10.062;2022-09-09T10:56:26;6.57;;;2.33;;
14736;SDS011;7459;53.590;10.062;2022-09-09T10:59:14;6.15;;;1.50;;
14736;SDS011;7459;53.590;10.062;2022-09-09T11:01:49;7.63;;;1.92;;
14736;SDS011;7459;53.590;10.062;2022-09-09T11:08:12;3.43;;;1.00;;
14736;SDS011;7459;53.590;10.062;2022-09-09T11:13:49;6.35;;;2.05;;
14736;SDS011;7459;53.590;10.062;2022-09-09T11:19:18;7.47;;;1.38;;
14736;SDS011;7459;53.590;10.062;2022-09-09T11:21:50;4.50;;;1.10;;
14736;SDS011;7459;53.590;10.062;2022-09-09T11:24:36;4.38;;;0.80;;
14736;SDS011;7459;53.590;10.062;2022-09-09T11:27:20;4.25;;;1.40;;
14736;SDS011;7459;53.590;10.062;2022-09-09T11:30:10;4.13;;;1.10;;
14736;SDS011;7459;53.590;10.062;2022-09-09T11:33:03;5.22;;;1.55;;
14736;SDS011;7459;53.590;10.062;2022-09-09T11:42:05;6.20;;;1.77;;
14736;SDS011;7459;53.590;10.062;2022-09-09T11:44:37;4.60;;;1.38;;
14736;SDS011;7459;53.590;10.062;2022-09-09T11:47:03;5.40;;;1.63;;
14736;SDS011;7459;53.590;10.062;2022-09-09T11:52:11;4.22;;;1.85;;
14736;SDS011;7459;53.590;10.062;2022-09-09T11:54:48;4.67;;;1.83;;
14736;SDS011;7459;53.590;10.062;2022-09-09T11:57:25;5.97;;;2.40;;
14736;SDS011;7459;53.590;10.062;2022-09-09T11:59:58;3.83;;;2.08;;
14736;SDS011;7459;53.590;10.062;2022-09-09T12:02:25;8.80;;;2.13;;
14736;SDS011;7459;53.590;10.062;2022-09-09T12:05:04;4.00;;;2.17;;
14736;SDS011;7459;53.590;10.062;2022-09-09T12:17:52;3.58;;;1.65;;
14736;SDS011;7459;53.590;10.062;2022-09-09T12:20:21;3.85;;;1.42;;
14736;SDS011;7459;53.590;10.062;2022-09-09T12:31:43;3.05;;;1.08;;
14736;SDS011;7459;53.590;10.062;2022-09-09T12:34:30;7.63;;;1.83;;
14736;SDS011;7459;53.590;10.062;2022-09-09T12:37:10;8.43;;;2.40;;
14736;SDS011;7459;53.590;10.062;2022-09-09T12:39:54;3.70;;;1.40;;
14736;SDS011;7459;53.590;10.062;2022-09-09T12:42:23;5.30;;;1.77;;
14736;SDS011;7459;53.590;10.062;2022-09-09T12:45:00;7.25;;;1.58;;
14736;SDS011;7459;53.590;10.062;2022-09-09T12:47:35;5.20;;;2.53;;
14736;SDS011;7459;53.590;10.062;2022-09-09T12:50:17;4.47;;;2.10;;
14736;SDS011;7459;53.590;10.062;2022-09-09T12:52:46;5.30;;;1.92;;
14736;SDS011;7459;53.590;10.062;2022-09-09T12:55:19;7.90;;;2.33;;
14736;SDS011;7459;53.590;10.062;2022-09-09T12:57:59;5.47;;;1.83;;
14736;SDS011;7459;53.590;10.062;2022-09-09T13:00:29;7.53;;;2.00;;
14736;SDS011;7459;53.590;10.062;2022-09-09T13:02:56;4.25;;;2.25;;
14736;SDS011;7459;53.590;10.062;2022-09-09T13:05:27;5.50;;;2.58;;
14736;SDS011;7459;53.590;10.062;2022-09-09T13:08:04;4.70;;;2.57;;
14736;SDS011;7459;53.590;10.062;2022-09-09T13:11:20;6.25;;;2.42;;
14736;SDS011;7459;53.590;10.062;2022-09-09T13:13:58;8.82;;;2.20;;
14736;SDS011;7459;53.590;10.062;2022-09-09T13:16:33;7.38;;;2.78;;
14736;SDS011;7459;53.590;10.062;2022-09-09T13:19:01;6.07;;;2.63;;
14736;SDS011;7459;53.590;10.062;2022-09-09T13:21:37;5.60;;;2.87;;
14736;SDS011;7459;53.590;10.062;2022-09-09T13:24:57;4.85;;;3.10;;
14736;SDS011;7459;53.590;10.062;2022-09-09T13:27:00;6.00;;;2.80;;
14736;SDS011;7459;53.590;10.062;2022-09-09T13:29:29;6.38;;;2.75;;
14736;SDS011;7459;53.590;10.062;2022-09-09T13:32:04;8.20;;;3.42;;
14736;SDS011;7459;53.590;10.062;2022-09-09T13:34:49;5.60;;;1.87;;
14736;SDS011;7459;53.590;10.062;2022-09-09T13:37:20;3.88;;;1.60;;
14736;SDS011;7459;53.590;10.062;2022-09-09T13:40:02;5.38;;;2.50;;
14736;SDS011;7459;53.590;10.062;2022-09-09T13:42:31;5.45;;;2.45;;
14736;SDS011;7459;53.590;10.062;2022-09-09T13:45:00;6.13;;;2.45;;
14736;SDS011;7459;53.590;10.062;2022-09-09T13:47:30;5.73;;;3.17;;
14736;SDS011;7459;53.590;10.062;2022-09-09T13:52:56;5.85;;;3.10;;
14736;SDS011;7459;53.590;10.062;2022-09-09T13:55:24;6.10;;;2.35;;
14736;SDS011;7459;53.590;10.062;2022-09-09T13:57:56;6.75;;;2.53;;
14736;SDS011;7459;53.590;10.062;2022-09-09T14:00:25;5.53;;;2.60;;
14736;SDS011;7459;53.590;10.062;2022-09-09T14:02:53;6.82;;;2.33;;
14736;SDS011;7459;53.590;10.062;2022-09-09T14:05:20;3.90;;;2.40;;
14736;SDS011;7459;53.590;10.062;2022-09-09T14:07:47;7.57;;;2.92;;
14736;SDS011;7459;53.590;10.062;2022-09-09T14:10:14;8.93;;;3.15;;
14736;SDS011;7459;53.590;10.062;2022-09-09T14:12:40;7.50;;;3.67;;
14736;SDS011;7459;53.590;10.062;2022-09-09T14:15:07;7.00;;;3.08;;
14736;SDS011;7459;53.590;10.062;2022-09-09T14:17:35;11.05;;;3.10;;
14736;SDS011;7459;53.590;10.062;2022-09-09T14:20:01;7.33;;;3.63;;
14736;SDS011;7459;53.590;10.062;2022-09-09T14:22:36;7.05;;;2.85;;
14736;SDS011;7459;53.590;10.062;2022-09-09T14:25:04;8.85;;;3.58;;
14736;SDS011;7459;53.590;10.062;2022-09-09T14:27:31;7.88;;;3.17;;
14736;SDS011;7459;53.590;10.062;2022-09-09T14:29:57;7.45;;;3.95;;
14736;SDS011;7459;53.590;10.062;2022-09-09T14:32:24;8.00;;;2.97;;
14736;SDS011;7459;53.590;10.062;2022-09-09T14:34:51;8.48;;;3.17;;
14736;SDS011;7459;53.590;10.062;2022-09-09T14:37:17;5.97;;;2.95;;
14736;SDS011;7459;53.590;10.062;2022-09-09T14:39:44;10.45;;;3.70;;
14736;SDS011;7459;53.590;10.062;2022-09-09T14:42:11;6.03;;;3.65;;
14736;SDS011;7459;53.590;10.062;2022-09-09T14:44:38;7.50;;;3.67;;
14736;SDS011;7459;53.590;10.062;2022-09-09T14:47:04;6.80;;;3.10;;
14736;SDS011;7459;53.590;10.062;2022-09-09T14:49:32;12.35;;;3.22;;
14736;SDS011;7459;53.590;10.062;2022-09-09T14:51:59;7.13;;;3.00;;
14736;SDS011;7459;53.590;10.062;2022-09-09T14:54:25;9.17;;;2.80;;
14736;SDS011;7459;53.590;10.062;2022-09-09T14:56:51;5.68;;;1.90;;
14736;SDS011;7459;53.590;10.062;2022-09-09T14:59:16;5.53;;;2.23;;
14736;SDS011;7459;53.590;10.062;2022-09-09T15:01:42;3.50;;;2.40;;
14736;SDS011;7459;53.590;10.062;2022-09-09T15:04:10;3.70;;;2.00;;
14736;SDS011;7459;53.590;10.062;2022-09-09T15:06:39;5.43;;;1.70;;
14736;SDS011;7459;53.590;10.062;2022-09-09T15:09:06;4.07;;;1.90;;
14736;SDS011;7459;53.590;10.062;2022-09-09T15:11:35;5.38;;;2.03;;
14736;SDS011;7459;53.590;10.062;2022-09-09T15:14:03;6.80;;;2.25;;
14736;SDS011;7459;53.590;10.062;2022-09-09T15:16:33;6.23;;;2.10;;
14736;SDS011;7459;53.590;10.062;2022-09-09T15:19:00;8.20;;;2.20;;
14736;SDS011;7459;53.590;10.062;2022-09-09T15:21:28;6.65;;;2.50;;
14736;SDS011;7459;53.590;10.062;2022-09-09T15:23:56;8.40;;;2.60;;
14736;SDS011;7459;53.590;10.062;2022-09-09T15:26:22;6.50;;;2.83;;
14736;SDS011;7459;53.590;10.062;2022-09-09T15:28:49;7.00;;;2.73;;
14736;SDS011;7459;53.590;10.062;2022-09-09T15:31:16;8.02;;;2.10;;
14736;SDS011;7459;53.590;10.062;2022-09-09T15:33:49;7.28;;;2.50;;
14736;SDS011;7459;53.590;10.062;2022-09-09T15:36:26;6.30;;;2.90;;
14736;SDS011;7459;53.590;10.062;2022-09-09T15:38:57;9.82;;;3.20;;
14736;SDS011;7459;53.590;10.062;2022-09-09T15:41:24;5.17;;;2.47;;
14736;SDS011;7459;53.590;10.062;2022-09-09T15:43:51;6.30;;;2.65;;
14736;SDS011;7459;53.590;10.062;2022-09-09T15:49:12;7.55;;;2.80;;
14736;SDS011;7459;53.590;10.062;2022-09-09T15:51:41;6.38;;;2.55;;
14736;SDS011;7459;53.590;10.062;2022-09-09T15:54:10;4.47;;;1.47;;
14736;SDS011;7459;53.590;10.062;2022-09-09T15:56:38;4.75;;;1.80;;
14736;SDS011;7459;53.590;10.062;2022-09-09T15:59:05;4.70;;;1.90;;
14736;SDS011;7459;53.590;10.062;2022-09-09T16:01:31;5.30;;;1.63;;
14736;SDS011;7459;53.590;10.062;2022-09-09T16:03:57;7.10;;;2.27;;
14736;SDS011;7459;53.590;10.062;2022-09-09T16:06:25;5.60;;;2.13;;
14736;SDS011;7459;53.590;10.062;2022-09-09T16:08:53;6.60;;;2.15;;
14736;SDS011;7459;53.590;10.062;2022-09-09T16:11:28;7.35;;;2.28;;
14736;SDS011;7459;53.590;10.062;2022-09-09T16:14:00;6.55;;;2.10;;
14736;SDS011;7459;53.590;10.062;2022-09-09T16:16:27;5.50;;;1.50;;
14736;SDS011;7459;53.590;10.062;2022-09-09T16:18:55;6.07;;;1.90;;
14736;SDS011;7459;53.590;10.062;2022-09-09T16:21:28;5.95;;;2.17;;
14736;SDS011;7459;53.590;10.062;2022-09-09T16:24:09;5.80;;;2.15;;
14736;SDS011;7459;53.590;10.062;2022-09-09T16:26:37;6.68;;;1.67;;
14736;SDS011;7459;53.590;10.062;2022-09-09T16:29:05;7.27;;;1.90;;
14736;SDS011;7459;53.590;10.062;2022-09-09T16:31:31;4.72;;;1.70;;
14736;SDS011;7459;53.590;10.062;2022-09-09T16:33:57;5.85;;;2.38;;
14736;SDS011;7459;53.590;10.062;2022-09-09T16:36:25;5.38;;;2.05;;
14736;SDS011;7459;53.590;10.062;2022-09-09T16:38:55;20.30;;;10.90;;
14736;SDS011;7459;53.590;10.062;2022-09-09T16:41:29;9.80;;;4.22;;
14736;SDS011;7459;53.590;10.062;2022-09-09T16:43:59;7.35;;;3.20;;
14736;SDS011;7459;53.590;10.062;2022-09-09T16:46:28;7.22;;;2.60;;
14736;SDS011;7459;53.590;10.062;2022-09-09T16:48:57;21.73;;;14.45;;
14736;SDS011;7459;53.590;10.062;2022-09-09T16:51:25;7.67;;;4.70;;
14736;SDS011;7459;53.590;10.062;2022-09-09T16:53:58;8.48;;;2.97;;
14736;SDS011;7459;53.590;10.062;2022-09-09T16:56:28;6.65;;;2.30;;
14736;SDS011;7459;53.590;10.062;2022-09-09T16:58:58;5.97;;;2.95;;
14736;SDS011;7459;53.590;10.062;2022-09-09T17:01:26;6.65;;;3.15;;
14736;SDS011;7459;53.590;10.062;2022-09-09T17:03:55;16.97;;;15.17;;
14736;SDS011;7459;53.590;10.062;2022-09-09T17:06:22;11.07;;;6.07;;
14736;SDS011;7459;53.590;10.062;2022-09-09T17:08:53;5.82;;;2.60;;
14736;SDS011;7459;53.590;10.062;2022-09-09T17:11:20;7.03;;;3.05;;
14736;SDS011;7459;53.590;10.062;2022-09-09T17:13:46;5.83;;;2.10;;
14736;SDS011;7459;53.590;10.062;2022-09-09T17:16:13;5.97;;;2.08;;
14736;SDS011;7459;53.590;10.062;2022-09-09T17:18:41;8.57;;;2.88;;
14736;SDS011;7459;53.590;10.062;2022-09-09T17:21:09;5.97;;;2.25;;
14736;SDS011;7459;53.590;10.062;2022-09-09T17:23:38;5.37;;;2.03;;
14736;SDS011;7459;53.590;10.062;2022-09-09T17:26:07;5.95;;;1.88;;
14736;SDS011;7459;53.590;10.062;2022-09-09T17:28:35;6.25;;;1.65;;
14736;SDS011;7459;53.590;10.062;2022-09-09T17:31:03;5.55;;;2.03;;
14736;SDS011;7459;53.590;10.062;2022-09-09T17:33:32;6.15;;;1.85;;
14736;SDS011;7459;53.590;10.062;2022-09-09T17:36:01;5.77;;;1.93;;
14736;SDS011;7459;53.590;10.062;2022-09-09T17:38:34;7.75;;;1.85;;
14736;SDS011;7459;53.590;10.062;2022-09-09T17:41:01;5.10;;;1.50;;
14736;SDS011;7459;53.590;10.062;2022-09-09T17:43:28;5.10;;;2.00;;
14736;SDS011;7459;53.590;10.062;2022-09-09T17:45:54;7.85;;;1.98;;
14736;SDS011;7459;53.590;10.062;2022-09-09T17:48:20;5.13;;;1.90;;
14736;SDS011;7459;53.590;10.062;2022-09-09T17:50:45;5.20;;;2.20;;
14736;SDS011;7459;53.590;10.062;2022-09-09T17:53:11;4.57;;;1.67;;
14736;SDS011;7459;53.590;10.062;2022-09-09T17:55:37;6.90;;;2.27;;
14736;SDS011;7459;53.590;10.062;2022-09-09T17:58:02;7.18;;;2.40;;
14736;SDS011;7459;53.590;10.062;2022-09-09T18:00:28;5.83;;;2.50;;
14736;SDS011;7459;53.590;10.062;2022-09-09T18:02:55;8.90;;;2.92;;
14736;SDS011;7459;53.590;10.062;2022-09-09T18:05:21;7.35;;;2.50;;
14736;SDS011;7459;53.590;10.062;2022-09-09T18:07:46;6.37;;;2.33;;
14736;SDS011;7459;53.590;10.062;2022-09-09T18:10:13;6.07;;;2.53;;
14736;SDS011;7459;53.590;10.062;2022-09-09T18:12:38;5.40;;;2.38;;
14736;SDS011;7459;53.590;10.062;2022-09-09T18:15:05;9.93;;;3.35;;
14736;SDS011;7459;53.590;10.062;2022-09-09T18:17:31;12.77;;;3.50;;
14736;SDS011;7459;53.590;10.062;2022-09-09T18:19:56;5.15;;;3.00;;
14736;SDS011;7459;53.590;10.062;2022-09-09T18:22:22;6.53;;;2.60;;
14736;SDS011;7459;53.590;10.062;2022-09-09T18:24:48;8.68;;;2.78;;
14736;SDS011;7459;53.590;10.062;2022-09-09T18:27:14;7.20;;;2.75;;
14736;SDS011;7459;53.590;10.062;2022-09-09T18:29:40;5.90;;;2.50;;
14736;SDS011;7459;53.590;10.062;2022-09-09T18:32:06;5.80;;;2.78;;
14736;SDS011;7459;53.590;10.062;2022-09-09T18:34:32;9.18;;;3.15;;
14736;SDS011;7459;53.590;10.062;2022-09-09T18:36:58;9.10;;;2.37;;
14736;SDS011;7459;53.590;10.062;2022-09-09T18:39:25;9.10;;;3.03;;
14736;SDS011;7459;53.590;10.062;2022-09-09T18:41:57;5.57;;;2.75;;
14736;SDS011;7459;53.590;10.062;2022-09-09T18:44:25;7.85;;;2.75;;
14736;SDS011;7459;53.590;10.062;2022-09-09T18:46:54;6.50;;;2.77;;
14736;SDS011;7459;53.590;10.062;2022-09-09T18:49:21;9.98;;;3.20;;
14736;SDS011;7459;53.590;10.062;2022-09-09T18:51:48;7.65;;;3.38;;
14736;SDS011;7459;53.590;10.062;2022-09-09T18:54:18;9.43;;;3.65;;
14736;SDS011;7459;53.590;10.062;2022-09-09T18:56:47;9.87;;;4.20;;
14736;SDS011;7459;53.590;10.062;2022-09-09T18:59:15;9.27;;;3.90;;
14736;SDS011;7459;53.590;10.062;2022-09-09T19:01:43;12.43;;;5.70;;
14736;SDS011;7459;53.590;10.062;2022-09-09T19:04:14;14.32;;;7.60;;
14736;SDS011;7459;53.590;10.062;2022-09-09T19:06:41;23.52;;;11.20;;
14736;SDS011;7459;53.590;10.062;2022-09-09T19:09:12;23.00;;;11.27;;
14736;SDS011;7459;53.590;10.062;2022-09-09T19:11:43;15.80;;;9.00;;
14736;SDS011;7459;53.590;10.062;2022-09-09T19:14:10;13.02;;;6.90;;
14736;SDS011;7459;53.590;10.062;2022-09-09T19:16:39;10.57;;;5.40;;
14736;SDS011;7459;53.590;10.062;2022-09-09T19:19:10;9.18;;;4.82;;
14736;SDS011;7459;53.590;10.062;2022-09-09T19:21:40;11.30;;;5.37;;
14736;SDS011;7459;53.590;10.062;2022-09-09T19:24:15;9.30;;;4.72;;
14736;SDS011;7459;53.590;10.062;2022-09-09T19:26:46;11.45;;;5.18;;
14736;SDS011;7459;53.590;10.062;2022-09-09T19:29:17;9.88;;;4.88;;
14736;SDS011;7459;53.590;10.062;2022-09-09T19:31:48;9.07;;;5.15;;
14736;SDS011;7459;53.590;10.062;2022-09-09T19:34:15;10.80;;;5.03;;
14736;SDS011;7459;53.590;10.062;2022-09-09T19:36:41;8.80;;;5.20;;
14736;SDS011;7459;53.590;10.062;2022-09-09T19:39:08;8.80;;;5.22;;
14736;SDS011;7459;53.590;10.062;2022-09-09T19:41:35;8.27;;;5.15;;
14736;SDS011;7459;53.590;10.062;2022-09-09T19:44:02;8.50;;;4.77;;
14736;SDS011;7459;53.590;10.062;2022-09-09T19:46:31;8.27;;;4.40;;
14736;SDS011;7459;53.590;10.062;2022-09-09T19:49:03;10.75;;;5.38;;
14736;SDS011;7459;53.590;10.062;2022-09-09T19:51:30;8.63;;;4.57;;
14736;SDS011;7459;53.590;10.062;2022-09-09T19:54:01;8.48;;;4.80;;
14736;SDS011;7459;53.590;10.062;2022-09-09T19:56:32;8.80;;;4.47;;
14736;SDS011;7459;53.590;10.062;2022-09-09T19:59:01;7.75;;;4.43;;
14736;SDS011;7459;53.590;10.062;2022-09-09T20:01:35;8.98;;;4.80;;
14736;SDS011;7459;53.590;10.062;2022-09-09T20:04:05;10.02;;;4.35;;
14736;SDS011;7459;53.590;10.062;2022-09-09T20:06:34;8.50;;;4.22;;
14736;SDS011;7459;53.590;10.062;2022-09-09T20:09:02;8.37;;;4.67;;
14736;SDS011;7459;53.590;10.062;2022-09-09T20:11:30;9.52;;;4.35;;
14736;SDS011;7459;53.590;10.062;2022-09-09T20:13:56;7.38;;;4.05;;
14736;SDS011;7459;53.590;10.062;2022-09-09T20:16:23;6.82;;;3.50;;
14736;SDS011;7459;53.590;10.062;2022-09-09T20:18:53;7.50;;;3.10;;
14736;SDS011;7459;53.590;10.062;2022-09-09T20:21:22;9.80;;;3.83;;
14736;SDS011;7459;53.590;10.062;2022-09-09T20:23:51;8.07;;;3.97;;
14736;SDS011;7459;53.590;10.062;2022-09-09T20:26:19;8.15;;;3.65;;
14736;SDS011;7459;53.590;10.062;2022-09-09T20:28:47;8.45;;;4.18;;
14736;SDS011;7459;53.590;10.062;2022-09-09T20:31:18;7.33;;;3.70;;
14736;SDS011;7459;53.590;10.062;2022-09-09T20:33:47;8.02;;;3.80;;
14736;SDS011;7459;53.590;10.062;2022-09-09T20:36:27;7.60;;;3.33;;
14736;SDS011;7459;53.590;10.062;2022-09-09T20:38:56;7.53;;;3.67;;
14736;SDS011;7459;53.590;10.062;2022-09-09T20:41:35;6.72;;;3.30;;
14736;SDS011;7459;53.590;10.062;2022-09-09T20:44:09;8.40;;;3.70;;
14736;SDS011;7459;53.590;10.062;2022-09-09T20:46:45;9.88;;;3.75;;
14736;SDS011;7459;53.590;10.062;2022-09-09T20:49:13;6.25;;;3.67;;
14736;SDS011;7459;53.590;10.062;2022-09-09T20:51:41;7.03;;;3.33;;
14736;SDS011;7459;53.590;10.062;2022-09-09T20:54:15;6.65;;;3.25;;
14736;SDS011;7459;53.590;10.062;2022-09-09T20:56:50;6.60;;;3.10;;
14736;SDS011;7459;53.590;10.062;2022-09-09T20:59:19;6.07;;;3.17;;
14736;SDS011;7459;53.590;10.062;2022-09-09T21:01:47;7.85;;;3.55;;
14736;SDS011;7459;53.590;10.062;2022-09-09T21:04:14;6.72;;;3.33;;
14736;SDS011;7459;53.590;10.062;2022-09-09T21:06:41;7.30;;;3.10;;
14736;SDS011;7459;53.590;10.062;2022-09-09T21:09:07;7.80;;;2.93;;
14736;SDS011;7459;53.590;10.062;2022-09-09T21:11:33;7.80;;;2.72;;
14736;SDS011;7459;53.590;10.062;2022-09-09T21:14:00;6.40;;;2.55;;
14736;SDS011;7459;53.590;10.062;2022-09-09T21:16:26;7.05;;;3.20;;
14736;SDS011;7459;53.590;10.062;2022-09-09T21:18:52;6.13;;;2.83;;
14736;SDS011;7459;53.590;10.062;2022-09-09T21:21:18;5.78;;;3.42;;
14736;SDS011;7459;53.590;10.062;2022-09-09T21:23:44;7.30;;;2.90;;